Time;durP1;ratioP1;P1;durP2;ratioP2;P2;SDS_P1;SDS_P2;PMS_P1;PMS_P2;Temp;Humidity;BMP_temperature;BMP_pressure;BME280_temperature;BME280_humidity;BME280_pressure;Samples;Min_cycle;Max_cycle;Signal;HPM_P1;HPM_P2
2022/03/13 00:02:05;;;;;;;25.30;15.93;;;3.00;91.60;;;;;;5052950;28;20271;-58
2022/03/13 00:04:32;;;;;;;20.80;14.80;;;3.00;91.60;;;;;;5052876;28;20280;-60
2022/03/13 00:06:58;;;;;;;20.13;14.37;;;3.10;91.50;;;;;;5053265;28;20224;-62
2022/03/13 00:09:26;;;;;;;21.00;13.17;;;3.00;91.60;;;;;;5053284;28;20205;-61
2022/03/13 00:11:53;;;;;;;21.70;14.13;;;3.00;91.60;;;;;;5053112;28;20321;-59
2022/03/13 00:14:24;;;;;;;20.97;14.00;;;2.90;91.60;;;;;;5052783;28;20782;-60
2022/03/13 00:16:52;;;;;;;24.67;14.13;;;2.90;91.60;;;;;;5053047;28;20202;-60
2022/03/13 00:19:22;;;;;;;23.53;14.77;;;2.90;91.60;;;;;;5053184;28;20208;-60
2022/03/13 00:21:52;;;;;;;18.83;13.30;;;2.90;91.60;;;;;;5052892;28;20674;-58
2022/03/13 00:24:20;;;;;;;18.73;12.80;;;2.90;91.40;;;;;;5052791;28;20229;-59
2022/03/13 00:26:49;;;;;;;20.97;13.70;;;3.00;91.30;;;;;;5052775;28;20705;-59
2022/03/13 00:29:15;;;;;;;16.77;12.10;;;3.10;91.10;;;;;;5052863;28;20225;-59
2022/03/13 00:31:42;;;;;;;20.43;14.33;;;3.30;90.90;;;;;;5052992;28;20209;-59
2022/03/13 00:34:10;;;;;;;17.83;13.10;;;3.40;90.60;;;;;;5052768;28;20350;-58
2022/03/13 00:36:37;;;;;;;18.53;13.30;;;3.40;90.40;;;;;;5052760;28;20301;-59
2022/03/13 00:39:05;;;;;;;20.47;13.70;;;3.50;90.30;;;;;;5052591;28;20205;-59
2022/03/13 00:41:31;;;;;;;19.57;13.47;;;3.50;90.30;;;;;;5052650;28;20205;-59
2022/03/13 00:43:58;;;;;;;22.00;15.17;;;3.50;90.20;;;;;;5052455;28;20232;-59
2022/03/13 00:46:25;;;;;;;19.97;13.93;;;3.50;90.10;;;;;;5052406;28;20216;-59
2022/03/13 00:48:52;;;;;;;17.70;13.37;;;3.50;90.20;;;;;;5052826;28;20201;-58
2022/03/13 00:51:21;;;;;;;20.83;13.40;;;3.40;90.30;;;;;;5052493;28;20205;-59
2022/03/13 00:53:47;;;;;;;19.57;12.57;;;3.30;90.50;;;;;;5052410;28;20205;-59
2022/03/13 00:56:14;;;;;;;20.13;12.83;;;3.20;90.40;;;;;;5051950;28;20209;-59
2022/03/13 00:58:42;;;;;;;19.73;13.57;;;3.30;90.50;;;;;;5052549;28;20470;-58
2022/03/13 01:01:11;;;;;;;21.20;13.47;;;3.30;90.40;;;;;;5052380;28;20201;-60
2022/03/13 01:03:49;;;;;;;21.90;13.43;;;3.30;90.40;;;;;;5052288;28;20229;-58
2022/03/13 01:06:16;;;;;;;19.33;13.43;;;3.30;90.30;;;;;;5051962;28;20263;-58
2022/03/13 01:08:46;;;;;;;18.30;12.87;;;3.40;90.20;;;;;;5051465;28;20291;-58
2022/03/13 01:11:13;;;;;;;17.77;12.77;;;3.40;90.00;;;;;;5052487;28;20251;-59
2022/03/13 01:13:40;;;;;;;19.73;12.93;;;3.40;90.00;;;;;;5052582;28;20205;-59
2022/03/13 01:16:13;;;;;;;17.83;12.50;;;3.40;89.80;;;;;;5051685;28;20591;-59
2022/03/13 01:18:42;;;;;;;18.47;12.90;;;3.40;89.60;;;;;;5052014;28;20233;-59
2022/03/13 01:21:10;;;;;;;18.17;12.50;;;3.40;89.80;;;;;;5051713;28;20209;-59
2022/03/13 01:23:38;;;;;;;20.00;12.27;;;3.30;90.00;;;;;;5051903;28;20222;-59
2022/03/13 01:26:38;;;;;;;18.13;11.93;;;3.20;90.00;;;;;;5051707;28;20240;-59
2022/03/13 01:29:07;;;;;;;18.80;12.67;;;3.10;90.30;;;;;;5052134;28;20209;-59
2022/03/13 01:31:36;;;;;;;19.00;11.70;;;3.00;90.20;;;;;;5051915;28;20205;-58
2022/03/13 01:34:04;;;;;;;17.63;12.17;;;3.00;90.50;;;;;;5052033;28;20209;-59
2022/03/13 01:36:31;;;;;;;19.50;11.77;;;2.90;90.60;;;;;;5052397;28;20205;-60
2022/03/13 01:38:59;;;;;;;18.07;11.53;;;2.90;90.70;;;;;;5052119;28;20215;-60
2022/03/13 01:41:28;;;;;;;17.37;11.97;;;3.00;90.60;;;;;;5052136;28;20208;-60
2022/03/13 01:43:57;;;;;;;18.83;12.67;;;3.00;90.50;;;;;;5051942;28;20275;-59
2022/03/13 01:46:24;;;;;;;19.67;11.67;;;2.90;90.50;;;;;;5051738;28;20627;-59
2022/03/13 01:48:57;;;;;;;14.70;11.13;;;2.90;90.50;;;;;;5052048;28;20205;-59
2022/03/13 01:51:25;;;;;;;16.90;11.90;;;2.80;90.60;;;;;;5051763;28;20634;-61
2022/03/13 01:53:54;;;;;;;15.13;10.63;;;2.70;90.60;;;;;;5051633;28;20209;-59
2022/03/13 01:56:21;;;;;;;17.67;11.73;;;2.60;90.40;;;;;;5051288;28;20210;-59
2022/03/13 01:58:51;;;;;;;17.60;11.03;;;2.50;90.30;;;;;;5051501;28;20296;-59
2022/03/13 02:01:20;;;;;;;15.80;11.07;;;2.50;90.20;;;;;;5051905;28;20224;-59
2022/03/13 02:03:48;;;;;;;16.37;10.30;;;2.40;90.20;;;;;;5051746;28;20229;-59
2022/03/13 02:06:16;;;;;;;15.87;10.30;;;2.40;90.30;;;;;;5051283;28;20263;-59
2022/03/13 02:08:45;;;;;;;16.77;10.83;;;2.40;90.20;;;;;;5051441;28;20209;-59
2022/03/13 02:11:16;;;;;;;15.67;10.00;;;2.40;90.00;;;;;;5051367;28;20206;-61
2022/03/13 02:13:43;;;;;;;16.17;10.60;;;2.50;89.70;;;;;;5051556;28;20279;-59
2022/03/13 02:16:10;;;;;;;13.53;9.93;;;2.40;89.20;;;;;;5050949;28;20229;-59
2022/03/13 02:18:39;;;;;;;12.97;9.80;;;2.40;89.20;;;;;;5051443;28;20630;-59
2022/03/13 02:21:06;;;;;;;14.70;9.77;;;2.50;89.00;;;;;;5052258;28;20212;-59
2022/03/13 02:23:35;;;;;;;15.33;9.53;;;2.50;88.30;;;;;;5055193;28;20221;-59
2022/03/13 02:26:04;;;;;;;13.13;9.33;;;2.50;88.60;;;;;;5054939;28;20697;-59
2022/03/13 02:28:33;;;;;;;14.03;8.80;;;2.30;88.60;;;;;;5055256;28;20210;-61
2022/03/13 02:31:02;;;;;;;14.13;8.10;;;2.20;88.30;;;;;;5055152;28;20209;-60
2022/03/13 02:33:30;;;;;;;13.43;8.10;;;2.20;87.70;;;;;;5055185;28;20206;-61
2022/03/13 02:35:59;;;;;;;11.30;7.77;;;2.20;86.20;;;;;;5054520;28;20241;-60
2022/03/13 02:38:26;;;;;;;14.27;8.43;;;2.40;84.80;;;;;;5054812;28;20682;-60
2022/03/13 02:40:56;;;;;;;13.73;9.10;;;2.70;84.20;;;;;;5054925;28;20295;-60
2022/03/13 02:43:23;;;;;;;15.73;8.57;;;3.00;84.30;;;;;;5054997;28;20232;-60
2022/03/13 02:45:52;;;;;;;12.90;8.77;;;3.00;83.90;;;;;;5054876;28;20234;-60
2022/03/13 02:48:19;;;;;;;12.03;8.47;;;3.20;83.10;;;;;;5055112;28;20232;-62
2022/03/13 02:50:46;;;;;;;12.47;8.73;;;3.20;82.90;;;;;;5054574;28;20686;-60
2022/03/13 02:53:16;;;;;;;12.67;8.53;;;3.30;82.70;;;;;;5054886;28;20255;-60
2022/03/13 02:55:43;;;;;;;13.50;8.67;;;3.40;82.50;;;;;;5054737;28;20233;-60
2022/03/13 02:58:11;;;;;;;12.43;7.83;;;3.40;82.30;;;;;;5054589;28;20290;-60
2022/03/13 03:00:46;;;;;;;12.47;8.33;;;3.40;82.00;;;;;;5054492;28;20206;-60
2022/03/13 03:03:14;;;;;;;15.40;9.10;;;3.40;81.90;;;;;;5054213;28;20221;-60
2022/03/13 03:05:41;;;;;;;13.77;8.67;;;3.40;81.90;;;;;;5054268;28;20229;-59
2022/03/13 03:08:08;;;;;;;11.23;8.43;;;3.50;81.80;;;;;;5054421;28;20208;-60
2022/03/13 03:10:35;;;;;;;13.83;8.77;;;3.40;82.00;;;;;;5054364;28;20685;-60
2022/03/13 03:13:02;;;;;;;12.27;8.43;;;3.30;81.90;;;;;;5054262;28;20209;-60
2022/03/13 03:15:30;;;;;;;12.47;8.47;;;3.30;81.90;;;;;;5053721;28;20326;-60
2022/03/13 03:17:57;;;;;;;16.90;8.30;;;3.30;81.90;;;;;;5053961;28;20247;-60
2022/03/13 03:20:24;;;;;;;13.67;8.60;;;3.20;82.00;;;;;;5054370;28;20630;-60
2022/03/13 03:22:53;;;;;;;12.53;7.90;;;3.10;82.50;;;;;;5053988;28;20206;-59
2022/03/13 03:25:23;;;;;;;11.93;8.13;;;2.90;82.90;;;;;;5053881;28;20225;-60
2022/03/13 03:27:50;;;;;;;11.43;7.53;;;2.90;83.10;;;;;;5054033;28;20209;-60
2022/03/13 03:30:20;;;;;;;13.43;8.23;;;2.90;82.90;;;;;;5053851;28;20206;-59
2022/03/13 03:32:49;;;;;;;10.63;7.50;;;2.90;82.60;;;;;;5053404;28;20724;-59
2022/03/13 03:35:17;;;;;;;12.47;7.50;;;2.90;82.60;;;;;;5053647;28;20238;-59
2022/03/13 03:37:44;;;;;;;12.50;7.50;;;2.80;82.20;;;;;;5053913;28;20288;-60
2022/03/13 03:40:11;;;;;;;10.93;7.67;;;2.70;82.50;;;;;;5053781;28;20305;-60
2022/03/13 03:42:39;;;;;;;9.53;7.30;;;2.80;82.60;;;;;;5053588;28;20411;-60
2022/03/13 03:45:07;;;;;;;10.47;7.43;;;2.80;82.60;;;;;;5053172;28;20767;-61
2022/03/13 03:47:34;;;;;;;11.30;7.60;;;2.80;82.20;;;;;;5053758;28;20232;-61
2022/03/13 03:50:03;;;;;;;9.63;7.40;;;2.90;82.10;;;;;;5053745;28;20263;-61
2022/03/13 03:52:30;;;;;;;11.20;7.27;;;3.00;81.70;;;;;;5053373;28;20711;-61
2022/03/13 03:54:57;;;;;;;12.03;7.27;;;3.10;81.80;;;;;;5053174;28;20221;-61
2022/03/13 03:57:23;;;;;;;12.83;7.23;;;3.10;81.60;;;;;;5053736;28;20213;-59
2022/03/13 03:59:50;;;;;;;11.20;7.67;;;3.10;81.30;;;;;;5053525;28;20264;-58
2022/03/13 04:02:16;;;;;;;10.27;7.67;;;3.20;81.80;;;;;;5053511;28;20209;-61
2022/03/13 04:04:43;;;;;;;12.50;7.60;;;3.20;81.80;;;;;;5053041;28;20233;-58
2022/03/13 04:07:11;;;;;;;11.20;7.57;;;3.20;82.40;;;;;;5053202;28;20213;-59
2022/03/13 04:09:38;;;;;;;13.93;8.40;;;3.30;82.40;;;;;;5053217;28;20206;-59
2022/03/13 04:12:08;;;;;;;15.83;8.27;;;3.30;82.00;;;;;;5053120;28;20666;-59
2022/03/13 04:14:35;;;;;;;9.43;6.97;;;3.30;81.90;;;;;;5053069;28;20279;-59
2022/03/13 04:17:02;;;;;;;9.93;6.73;;;3.30;80.60;;;;;;5052859;28;20215;-59
2022/03/13 04:19:29;;;;;;;9.13;6.20;;;3.30;80.10;;;;;;5053159;28;20210;-60
2022/03/13 04:21:57;;;;;;;9.50;6.57;;;3.20;79.80;;;;;;5052998;28;20202;-60
2022/03/13 04:24:25;;;;;;;9.40;6.90;;;3.20;79.40;;;;;;5052736;28;20237;-59
2022/03/13 04:26:52;;;;;;;10.43;6.40;;;3.20;79.30;;;;;;5052706;28;20205;-60
2022/03/13 04:29:22;;;;;;;9.53;6.77;;;3.10;79.60;;;;;;5052833;28;20213;-59
2022/03/13 04:31:50;;;;;;;9.97;6.87;;;2.90;80.20;;;;;;5052873;28;20216;-59
2022/03/13 04:34:17;;;;;;;10.57;6.90;;;2.80;80.70;;;;;;5052537;28;20260;-60
2022/03/13 04:36:44;;;;;;;10.90;6.83;;;2.60;81.30;;;;;;5052620;28;20202;-59
2022/03/13 04:39:11;;;;;;;12.30;6.67;;;2.50;81.70;;;;;;5052833;28;20205;-59
2022/03/13 04:41:39;;;;;;;11.80;6.87;;;2.50;82.10;;;;;;5053254;28;20216;-59
2022/03/13 04:44:08;;;;;;;9.43;6.60;;;2.50;82.10;;;;;;5052017;28;20225;-59
2022/03/13 04:46:35;;;;;;;14.40;7.17;;;2.60;81.90;;;;;;5052485;28;20209;-59
2022/03/13 04:49:02;;;;;;;11.37;6.63;;;2.60;82.10;;;;;;5052749;28;20251;-58
2022/03/13 04:51:28;;;;;;;9.70;6.40;;;2.50;82.30;;;;;;5053182;28;20205;-59
2022/03/13 04:53:55;;;;;;;8.97;6.47;;;2.40;82.40;;;;;;5052781;28;20201;-59
2022/03/13 04:56:22;;;;;;;12.43;6.20;;;2.40;82.60;;;;;;5052314;28;20209;-60
2022/03/13 04:58:50;;;;;;;9.97;6.63;;;2.40;82.60;;;;;;5052501;28;20232;-59
2022/03/13 05:01:19;;;;;;;9.63;6.70;;;2.40;82.70;;;;;;5052582;28;20296;-59
2022/03/13 05:03:46;;;;;;;9.43;6.43;;;2.40;82.80;;;;;;5052292;28;20236;-59
2022/03/13 05:06:12;;;;;;;7.40;6.00;;;2.40;82.60;;;;;;5052198;28;20202;-59
2022/03/13 05:08:40;;;;;;;12.20;6.60;;;2.50;82.40;;;;;;5053209;28;20213;-60
2022/03/13 05:11:07;;;;;;;9.67;6.40;;;2.40;82.10;;;;;;5052810;28;20216;-59
2022/03/13 05:13:35;;;;;;;8.67;5.77;;;2.50;82.00;;;;;;5052548;28;20208;-59
2022/03/13 05:16:03;;;;;;;9.80;6.97;;;2.50;81.80;;;;;;5052252;28;20226;-59
2022/03/13 05:18:30;;;;;;;9.27;6.53;;;2.50;81.60;;;;;;5052299;28;20213;-59
2022/03/13 05:20:57;;;;;;;9.97;6.30;;;2.50;81.50;;;;;;5052195;28;20212;-60
2022/03/13 05:23:24;;;;;;;10.70;6.47;;;2.50;81.30;;;;;;5052586;28;20216;-60
2022/03/13 05:25:51;;;;;;;8.10;6.20;;;2.50;81.20;;;;;;5052514;28;20724;-59
2022/03/13 05:28:17;;;;;;;8.43;5.90;;;2.50;81.90;;;;;;5052697;28;20209;-59
2022/03/13 05:30:46;;;;;;;11.53;6.87;;;2.40;81.00;;;;;;5052294;28;20212;-59
2022/03/13 05:33:14;;;;;;;8.53;6.03;;;2.40;80.80;;;;;;5052239;28;20205;-59
2022/03/13 05:35:41;;;;;;;8.53;5.60;;;2.40;80.50;;;;;;5052238;28;20233;-59
2022/03/13 05:38:08;;;;;;;9.30;5.70;;;2.30;80.40;;;;;;5052722;28;20216;-60
2022/03/13 05:40:35;;;;;;;11.57;7.10;;;2.20;80.20;;;;;;5052380;28;20201;-59
2022/03/13 05:43:03;;;;;;;9.23;6.47;;;2.10;80.80;;;;;;5052475;28;20300;-59
2022/03/13 05:45:31;;;;;;;12.47;6.83;;;2.10;80.80;;;;;;5051858;28;20233;-60
2022/03/13 05:48:00;;;;;;;8.77;6.03;;;2.10;81.40;;;;;;5052275;28;20213;-59
2022/03/13 05:50:30;;;;;;;7.70;6.13;;;2.10;80.90;;;;;;5051804;28;20669;-59
2022/03/13 05:52:57;;;;;;;9.13;6.47;;;2.10;81.40;;;;;;5052037;28;20259;-59
2022/03/13 05:55:25;;;;;;;9.93;6.27;;;2.10;81.40;;;;;;5052815;28;20232;-60
2022/03/13 05:57:53;;;;;;;9.57;6.10;;;2.20;81.30;;;;;;5055681;28;20210;-60
2022/03/13 06:00:22;;;;;;;7.73;5.83;;;2.30;81.00;;;;;;5055639;28;20584;-60
2022/03/13 06:02:49;;;;;;;9.77;6.00;;;2.40;81.10;;;;;;5055703;28;20201;-63
2022/03/13 06:05:17;;;;;;;8.60;6.27;;;2.40;81.10;;;;;;5055338;28;20229;-59
2022/03/13 06:07:46;;;;;;;8.60;5.93;;;2.40;81.00;;;;;;5055500;28;20228;-60
2022/03/13 06:10:14;;;;;;;9.37;5.73;;;2.50;80.70;;;;;;5055368;28;20705;-60
2022/03/13 06:12:41;;;;;;;9.33;6.20;;;2.50;80.20;;;;;;5055428;28;20209;-59
2022/03/13 06:15:11;;;;;;;7.83;5.70;;;2.60;80.20;;;;;;5055355;28;20252;-60
2022/03/13 06:17:40;;;;;;;7.87;5.50;;;2.60;79.80;;;;;;5055765;28;20206;-60
2022/03/13 06:20:10;;;;;;;8.00;5.60;;;2.70;79.70;;;;;;5055559;28;20213;-59
2022/03/13 06:22:37;;;;;;;9.50;6.03;;;2.70;79.50;;;;;;5055410;28;20209;-60
2022/03/13 06:25:07;;;;;;;8.43;5.63;;;2.70;79.30;;;;;;5054855;28;20237;-59
2022/03/13 06:27:34;;;;;;;9.43;5.80;;;2.70;79.00;;;;;;5055109;28;20206;-59
2022/03/13 06:30:13;;;;;;;9.67;5.80;;;2.80;78.70;;;;;;5055248;28;20388;-59
2022/03/13 06:32:41;;;;;;;10.93;6.47;;;3.00;78.40;;;;;;5055263;28;20592;-59
2022/03/13 06:35:08;;;;;;;9.77;5.80;;;3.10;77.50;;;;;;5054787;28;20268;-59
2022/03/13 06:37:35;;;;;;;7.10;5.50;;;3.10;77.50;;;;;;5055148;28;20217;-61
2022/03/13 06:40:02;;;;;;;9.30;6.10;;;3.30;77.30;;;;;;5054943;28;20221;-60
2022/03/13 06:42:30;;;;;;;7.57;5.67;;;4.10;75.90;;;;;;5055187;28;20240;-61
2022/03/13 06:44:57;;;;;;;6.93;5.20;;;5.30;73.10;;;;;;5055016;28;20233;-61
2022/03/13 06:47:24;;;;;;;8.97;5.27;;;6.40;69.50;;;;;;5054950;28;20221;-61
2022/03/13 06:49:51;;;;;;;7.90;5.43;;;7.20;66.70;;;;;;5054841;28;20747;-61
2022/03/13 06:52:17;;;;;;;9.40;5.80;;;7.90;64.80;;;;;;5054689;28;20209;-61
2022/03/13 06:54:44;;;;;;;9.43;5.83;;;8.50;63.80;;;;;;5054880;28;20268;-61
2022/03/13 06:57:14;;;;;;;9.40;5.53;;;9.00;62.60;;;;;;5054309;28;20221;-61
2022/03/13 06:59:42;;;;;;;7.93;5.57;;;9.50;60.80;;;;;;5054822;28;20213;-61
2022/03/13 07:02:10;;;;;;;8.20;6.30;;;10.10;58.70;;;;;;5054674;28;20206;-61
2022/03/13 07:04:37;;;;;;;7.60;5.50;;;10.70;57.70;;;;;;5054413;28;20273;-61
2022/03/13 07:07:04;;;;;;;6.83;5.53;;;10.90;56.10;;;;;;5053510;28;20263;-61
2022/03/13 07:09:31;;;;;;;8.30;6.10;;;11.10;55.90;;;;;;5054441;28;20632;-61
2022/03/13 07:11:58;;;;;;;8.33;5.37;;;11.30;55.00;;;;;;5054512;28;20205;-61
2022/03/13 07:14:25;;;;;;;9.10;6.37;;;11.60;54.20;;;;;;5054483;28;20229;-61
2022/03/13 07:16:53;;;;;;;6.97;5.63;;;12.00;53.70;;;;;;5054354;28;20202;-61
2022/03/13 07:19:20;;;;;;;8.03;5.33;;;12.30;53.00;;;;;;5054585;28;20213;-62
2022/03/13 07:21:47;;;;;;;8.43;5.50;;;12.30;52.70;;;;;;5054349;28;20201;-61
2022/03/13 07:24:13;;;;;;;8.77;5.90;;;12.50;52.80;;;;;;5054344;28;20275;-61
2022/03/13 07:26:40;;;;;;;9.50;6.17;;;12.90;51.50;;;;;;5054090;28;20209;-61
2022/03/13 07:29:07;;;;;;;9.97;5.67;;;13.10;50.80;;;;;;5054169;28;20232;-61
2022/03/13 07:31:35;;;;;;;7.97;5.20;;;13.50;50.40;;;;;;5054392;28;20206;-61
2022/03/13 07:34:03;;;;;;;6.47;5.40;;;14.00;49.80;;;;;;5054250;28;20251;-61
2022/03/13 07:36:30;;;;;;;10.37;5.30;;;14.60;48.30;;;;;;5054964;28;20217;-59
2022/03/13 07:38:57;;;;;;;9.27;5.60;;;15.20;47.20;;;;;;5054532;28;20228;-59
2022/03/13 07:41:24;;;;;;;8.10;5.70;;;15.30;46.30;;;;;;5054407;28;20209;-59
2022/03/13 07:43:50;;;;;;;7.00;5.37;;;14.60;47.40;;;;;;5053967;28;20209;-58
2022/03/13 07:46:17;;;;;;;7.97;6.40;;;14.70;47.60;;;;;;5053842;28;20229;-60
2022/03/13 07:48:44;;;;;;;9.03;5.43;;;15.00;47.60;;;;;;5053853;28;20233;-59
2022/03/13 07:51:12;;;;;;;8.00;5.57;;;15.20;46.80;;;;;;5054141;28;20212;-58
2022/03/13 07:53:39;;;;;;;8.67;5.60;;;15.30;46.50;;;;;;5054043;28;20209;-58
2022/03/13 07:56:06;;;;;;;8.53;6.17;;;14.70;47.00;;;;;;5053508;28;20228;-58
2022/03/13 07:58:34;;;;;;;9.60;6.17;;;14.10;48.20;;;;;;5053940;28;20209;-58
2022/03/13 08:01:00;;;;;;;8.37;6.20;;;13.60;48.90;;;;;;5053827;28;20599;-57
2022/03/13 08:03:29;;;;;;;9.13;5.90;;;12.90;49.40;;;;;;5053730;28;20205;-58
2022/03/13 08:05:56;;;;;;;7.80;5.70;;;12.20;50.30;;;;;;5053256;28;20225;-58
2022/03/13 08:08:24;;;;;;;7.57;5.70;;;11.50;51.10;;;;;;5053649;28;20213;-58
2022/03/13 08:10:51;;;;;;;7.97;6.27;;;10.80;52.20;;;;;;5053684;28;20209;-58
2022/03/13 08:13:18;;;;;;;11.03;6.33;;;10.10;53.90;;;;;;5054665;28;20613;-62
2022/03/13 08:15:45;;;;;;;10.00;6.20;;;9.80;55.80;;;;;;5053582;28;20218;-62
2022/03/13 08:18:12;;;;;;;9.80;6.53;;;9.70;55.90;;;;;;5054034;28;20734;-62
2022/03/13 08:20:39;;;;;;;10.27;6.73;;;9.50;56.80;;;;;;5054259;28;20216;-60
2022/03/13 08:23:06;;;;;;;7.63;6.13;;;9.30;57.10;;;;;;5053716;28;20210;-62
2022/03/13 08:25:34;;;;;;;11.87;6.10;;;9.30;58.30;;;;;;5053242;28;20232;-62
2022/03/13 08:28:01;;;;;;;8.63;6.27;;;9.40;57.60;;;;;;5053503;28;20202;-62
2022/03/13 08:30:28;;;;;;;11.57;6.57;;;9.50;57.80;;;;;;5053181;28;20205;-62
2022/03/13 08:32:55;;;;;;;12.43;6.90;;;9.50;57.30;;;;;;5053608;28;20665;-62
2022/03/13 08:35:22;;;;;;;9.10;6.53;;;9.60;57.20;;;;;;5053156;28;20230;-62
2022/03/13 08:37:49;;;;;;;10.40;6.30;;;9.60;57.40;;;;;;5053743;28;20210;-62
2022/03/13 08:40:16;;;;;;;9.33;6.50;;;9.60;57.70;;;;;;5053332;28;20209;-62
2022/03/13 08:42:44;;;;;;;11.30;6.77;;;9.70;57.80;;;;;;5053233;28;20202;-62
2022/03/13 08:45:12;;;;;;;9.87;6.73;;;9.90;57.80;;;;;;5052992;28;20279;-61
2022/03/13 08:47:39;;;;;;;9.00;6.33;;;10.10;56.80;;;;;;5053275;28;20216;-61
2022/03/13 08:50:07;;;;;;;10.60;6.70;;;10.40;56.70;;;;;;5053110;28;20296;-62
2022/03/13 08:52:35;;;;;;;9.30;6.87;;;10.40;56.10;;;;;;5052942;28;20596;-62
2022/03/13 08:55:02;;;;;;;8.03;6.27;;;10.50;56.30;;;;;;5052438;28;20224;-61
2022/03/13 08:57:28;;;;;;;10.30;7.23;;;10.70;56.40;;;;;;5052574;28;20206;-61
2022/03/13 08:59:56;;;;;;;10.63;7.00;;;10.80;56.70;;;;;;5052420;28;20693;-61
2022/03/13 09:02:23;;;;;;;8.70;6.53;;;11.00;56.10;;;;;;5052826;28;20240;-61
2022/03/13 09:04:50;;;;;;;11.20;6.60;;;11.30;55.60;;;;;;5052542;28;20230;-62
2022/03/13 09:07:17;;;;;;;9.77;6.80;;;11.20;55.50;;;;;;5052829;28;20206;-62
2022/03/13 09:09:44;;;;;;;13.17;7.10;;;10.80;56.30;;;;;;5052823;28;20206;-62
2022/03/13 09:12:11;;;;;;;10.57;6.83;;;10.70;56.80;;;;;;5052747;28;20202;-62
2022/03/13 09:14:39;;;;;;;9.93;7.40;;;10.80;57.30;;;;;;5053076;28;20332;-62
2022/03/13 09:17:07;;;;;;;11.33;8.20;;;11.10;57.10;;;;;;5052634;28;20203;-62
2022/03/13 09:19:34;;;;;;;11.77;7.43;;;11.40;56.40;;;;;;5052634;28;20594;-62
2022/03/13 09:22:00;;;;;;;11.70;7.13;;;11.60;56.20;;;;;;5052399;28;20673;-63
2022/03/13 09:24:27;;;;;;;13.87;9.43;;;11.80;56.00;;;;;;5052650;28;20225;-63
2022/03/13 09:26:54;;;;;;;10.90;7.37;;;11.90;55.90;;;;;;5052691;28;20229;-63
2022/03/13 09:29:21;;;;;;;21.13;12.13;;;12.00;56.10;;;;;;5052374;28;20213;-63
2022/03/13 09:31:48;;;;;;;10.57;7.93;;;12.10;56.20;;;;;;5052454;28;20201;-62
2022/03/13 09:34:16;;;;;;;17.13;12.80;;;12.20;56.30;;;;;;5052021;28;20709;-59
2022/03/13 09:36:43;;;;;;;10.57;7.83;;;12.00;56.40;;;;;;5051296;28;20227;-59
2022/03/13 09:39:10;;;;;;;14.37;8.33;;;12.10;56.50;;;;;;5051657;28;20245;-59
2022/03/13 09:41:38;;;;;;;10.03;8.00;;;12.40;56.50;;;;;;5051944;28;20201;-59
2022/03/13 09:44:07;;;;;;;13.93;8.37;;;12.60;56.40;;;;;;5051618;28;20650;-59
2022/03/13 09:46:35;;;;;;;12.83;8.57;;;12.90;56.00;;;;;;5051410;28;20225;-59
2022/03/13 09:49:02;;;;;;;12.57;8.57;;;13.00;55.80;;;;;;5051543;28;20217;-59
2022/03/13 09:51:30;;;;;;;15.50;8.87;;;13.00;55.90;;;;;;5051520;28;20201;-59
2022/03/13 09:53:57;;;;;;;10.90;8.60;;;13.10;56.10;;;;;;5051806;28;20631;-59
2022/03/13 09:56:24;;;;;;;12.23;8.50;;;13.20;55.80;;;;;;5051456;28;20205;-59
2022/03/13 09:58:51;;;;;;;13.03;9.07;;;13.30;56.10;;;;;;5051500;28;20209;-59
2022/03/13 10:01:17;;;;;;;12.60;9.93;;;13.50;56.20;;;;;;5051722;28;20206;-58
2022/03/13 10:03:44;;;;;;;11.73;9.57;;;13.60;56.30;;;;;;5051763;28;20643;-59
2022/03/13 10:06:11;;;;;;;13.95;10.80;;;13.70;55.90;;;;;;5039257;28;20453;-58
2022/03/13 10:08:39;;;;;;;11.83;9.77;;;14.00;56.00;;;;;;5032050;28;20206;-57
2022/03/13 10:11:07;;;;;;;16.73;10.80;;;14.10;56.10;;;;;;5031777;28;20663;-57
2022/03/13 10:13:38;;;;;;;15.10;10.50;;;14.30;55.90;;;;;;5031597;28;20214;-60
2022/03/13 10:16:06;;;;;;;15.53;10.60;;;14.50;55.90;;;;;;5031038;28;20319;-59
2022/03/13 10:18:33;;;;;;;14.77;10.63;;;14.70;56.10;;;;;;5031955;28;20206;-60
2022/03/13 10:21:08;;;;;;;22.10;15.90;;;14.80;55.20;;;;;;5031508;28;20297;-56
2022/03/13 10:23:35;;;;;;;13.27;10.47;;;14.90;55.20;;;;;;5031641;28;20217;-61
2022/03/13 10:26:04;;;;;;;14.93;10.90;;;15.00;54.70;;;;;;5031036;28;20772;-60
2022/03/13 10:28:32;;;;;;;13.77;10.47;;;15.10;54.80;;;;;;5031564;28;20301;-59
2022/03/13 10:31:13;;;;;;;18.10;11.13;;;15.10;54.40;;;;;;5031289;28;20206;-60
2022/03/13 10:33:55;;;;;;;15.50;10.83;;;14.90;54.60;;;;;;5031522;28;20224;-59
2022/03/13 10:36:25;;;;;;;15.93;11.07;;;14.90;55.10;;;;;;5031228;28;20212;-59
2022/03/13 10:38:52;;;;;;;13.80;11.03;;;14.90;55.00;;;;;;5031486;28;20256;-58
2022/03/13 10:41:21;;;;;;;15.40;11.10;;;14.80;55.40;;;;;;5031822;28;20232;-59
2022/03/13 10:43:57;;;;;;;17.97;11.93;;;14.80;55.60;;;;;;5034225;28;20214;-58
2022/03/13 10:46:26;;;;;;;18.50;12.80;;;15.10;55.20;;;;;;5034961;28;20249;-60
2022/03/13 10:48:53;;;;;;;17.30;11.57;;;15.30;54.70;;;;;;5035047;28;20209;-58
2022/03/13 10:51:33;;;;;;;17.90;12.00;;;15.30;54.80;;;;;;5035130;28;20322;-59
2022/03/13 10:54:00;;;;;;;15.90;12.47;;;15.30;55.00;;;;;;5034941;28;20253;-60
2022/03/13 10:56:28;;;;;;;16.63;13.17;;;15.40;55.10;;;;;;5034617;28;20689;-59
2022/03/13 10:58:56;;;;;;;21.63;14.50;;;15.40;55.00;;;;;;5034947;28;20213;-60
2022/03/13 11:01:23;;;;;;;18.57;13.83;;;15.40;54.90;;;;;;5034766;28;20584;-61
2022/03/13 11:03:52;;;;;;;17.97;14.10;;;15.60;54.90;;;;;;5034622;28;20591;-59
2022/03/13 11:06:19;;;;;;;20.50;14.43;;;15.70;54.70;;;;;;5034405;28;20317;-60
2022/03/13 11:08:46;;;;;;;18.00;14.13;;;15.70;54.80;;;;;;5034700;28;20209;-59
2022/03/13 11:11:18;;;;;;;20.77;15.13;;;15.70;55.10;;;;;;5034618;28;20213;-59
2022/03/13 11:13:52;;;;;;;19.17;13.70;;;15.80;54.90;;;;;;5034571;28;20210;-58
2022/03/13 11:16:23;;;;;;;18.67;14.17;;;15.90;54.80;;;;;;5033751;28;20260;-58
2022/03/13 11:18:52;;;;;;;18.43;14.23;;;16.00;54.60;;;;;;5034403;28;20209;-58
2022/03/13 11:21:19;;;;;;;21.00;14.83;;;16.10;54.50;;;;;;5034253;28;20593;-59
2022/03/13 11:23:46;;;;;;;18.13;14.27;;;16.30;54.20;;;;;;5034360;28;20272;-58
2022/03/13 11:26:15;;;;;;;21.30;15.30;;;16.40;54.30;;;;;;5034052;28;20226;-57
2022/03/13 11:28:44;;;;;;;22.47;15.67;;;16.40;54.90;;;;;;5034086;28;20264;-57
2022/03/13 11:31:34;;;;;;;21.83;14.97;;;16.40;54.90;;;;;;5034282;28;20232;-62
2022/03/13 11:34:13;;;;;;;19.13;14.73;;;16.50;54.60;;;;;;5034188;28;20213;-59
2022/03/13 11:36:41;;;;;;;20.07;15.10;;;16.60;54.40;;;;;;5034165;28;20576;-58
2022/03/13 11:39:09;;;;;;;23.17;15.93;;;16.70;54.40;;;;;;5034299;28;20213;-59
2022/03/13 11:41:38;;;;;;;19.93;15.00;;;16.70;54.10;;;;;;5034329;28;20214;-62
2022/03/13 11:44:28;;;;;;;21.08;13.82;;;16.80;54.10;;;;;;5033602;28;20499;-60
2022/03/13 11:46:58;;;;;;;19.98;13.80;;;16.90;54.00;;;;;;5033926;28;20233;-61
2022/03/13 11:49:37;;;;;;;18.65;14.35;;;17.00;53.90;;;;;;5034434;28;20207;-64
2022/03/13 11:52:26;;;;;;;19.33;14.23;;;17.00;54.10;;;;;;5033569;28;20584;-60
2022/03/13 11:54:57;;;;;;;19.88;14.13;;;16.90;54.40;;;;;;5033521;28;20741;-60
2022/03/13 11:57:25;;;;;;;18.42;13.88;;;16.80;55.00;;;;;;5033487;28;20209;-61
2022/03/13 12:00:29;;;;;;;20.30;14.17;;;16.80;54.80;;;;;;5033447;28;20725;-62
2022/03/13 12:03:14;;;;;;;19.55;14.55;;;16.90;54.30;;;;;;5029013;28;20667;-60
2022/03/13 12:05:51;;;;;;;19.52;15.05;;;17.10;54.60;;;;;;5033306;28;20265;-60
2022/03/13 12:08:22;;;;;;;19.73;13.32;;;17.20;54.60;;;;;;5033652;28;20205;-59
2022/03/13 12:10:49;;;;;;;22.17;14.98;;;17.20;54.70;;;;;;5033422;28;20613;-60
2022/03/13 12:13:17;;;;;;;18.65;14.50;;;17.30;54.70;;;;;;5033951;28;20202;-60
2022/03/13 12:15:45;;;;;;;20.00;14.70;;;17.50;54.10;;;;;;5033518;28;20230;-58
2022/03/13 12:18:21;;;;;;;17.55;14.70;;;17.60;53.80;;;;;;5033364;28;20220;-58
2022/03/13 12:20:49;;;;;;;18.45;14.18;;;17.70;54.00;;;;;;5033101;28;20436;-58
2022/03/13 12:23:26;;;;;;;18.45;14.70;;;17.70;53.90;;;;;;5033139;28;20214;-59
2022/03/13 12:25:54;;;;;;;19.92;15.98;;;17.60;54.10;;;;;;5030575;28;20499;-60
2022/03/13 12:28:32;;;;;;;19.38;15.27;;;17.70;54.30;;;;;;5052876;28;20665;-59
2022/03/13 12:31:01;;;;;;;19.50;14.70;;;17.60;54.10;;;;;;5053107;28;20206;-58
2022/03/13 12:33:31;;;;;;;16.95;13.95;;;17.60;54.20;;;;;;5052870;28;20292;-59
2022/03/13 12:36:02;;;;;;;24.05;15.20;;;17.60;54.00;;;;;;5052098;28;20236;-59
2022/03/13 12:38:30;;;;;;;20.52;15.57;;;17.70;53.60;;;;;;5053046;28;20204;-61
2022/03/13 12:40:58;;;;;;;22.80;15.07;;;17.70;53.50;;;;;;5052849;28;20217;-62
2022/03/13 12:43:25;;;;;;;20.38;14.93;;;17.90;53.80;;;;;;5052890;28;20288;-59
2022/03/13 12:45:53;;;;;;;18.77;15.18;;;18.10;53.60;;;;;;5052266;28;20295;-59
2022/03/13 12:48:20;;;;;;;17.83;14.23;;;18.30;53.20;;;;;;5052683;28;20202;-59
2022/03/13 12:50:48;;;;;;;19.88;14.75;;;18.50;52.60;;;;;;5052551;28;20205;-60